Mc Coy, Colorado
Current Conditions -  °F | °C
As of 3:16 PM on Saturday 20 Dec 2014 (Local Time) from K20V Reporting Station
Overcast Overcast  
Wind Chill: 30°   Ceiling: 7000
Heat Index: 30°   Visibility: 10mi
Dew Point: 19°   Wind: 0mph
Humidity: 64%   Direction: NA
Pressure: 30.07"   Gusts: NA
Location:  39.9149°N, 106.722°W
Report Text: K20V 202216Z AUTO 00000KT 10SM SCT060 OVC070 M01/M07 A3007 RMK AO2
Loading
Personal Weather Stations






























Interactive Weather Map New forecast layout! Learn more

10-Day Weather Forecast

Advertisements
Track Severe Weather on mobile